Time;durP1;ratioP1;P1;durP2;ratioP2;P2;SDS_P1;SDS_P2;PMS_P1;PMS_P2;Temp;Humidity;BMP_temperature;BMP_pressure;BME280_temperature;BME280_humidity;BME280_pressure;Samples;Min_cycle;Max_cycle;Signal;HPM_P1;HPM_P2
2022/11/23 00:00:40;;;;;;;;;;;7.60;96.80;;;;;;4955638;28;19937;-78
2022/11/23 00:03:13;;;;;;;;;;;7.60;96.70;;;;;;4961257;28;19934;-78
2022/11/23 00:05:39;;;;;;;;;;;7.50;96.60;;;;;;4953035;28;19930;-78
2022/11/23 00:08:06;;;;;;;;;;;7.60;96.60;;;;;;4959678;28;19927;-78
2022/11/23 00:10:33;;;;;;;;;;;7.50;96.50;;;;;;4960092;28;20777;-77
2022/11/23 00:12:59;;;;;;;;;;;7.50;96.50;;;;;;4955188;28;19933;-78
2022/11/23 00:15:26;;;;;;;;;;;7.60;96.60;;;;;;4954836;28;19930;-78
2022/11/23 00:17:52;;;;;;;;;;;7.50;96.60;;;;;;4961832;28;20557;-78
2022/11/23 00:20:20;;;;;;;;;;;7.50;96.60;;;;;;4964602;28;20718;-77
2022/11/23 00:22:47;;;;;;;;;;;7.50;96.60;;;;;;4959356;28;19930;-79
2022/11/23 00:25:13;;;;;;;;;;;7.50;96.70;;;;;;4953199;28;19930;-78
2022/11/23 00:27:40;;;;;;;;;;;7.50;96.70;;;;;;4957031;28;19930;-78
2022/11/23 00:30:07;;;;;;;;;;;7.50;96.70;;;;;;4960000;28;19934;-78
2022/11/23 00:32:34;;;;;;;;;;;7.50;96.70;;;;;;4954671;28;19930;-78
2022/11/23 00:35:00;;;;;;;;;;;7.50;96.80;;;;;;4957860;28;19937;-78
2022/11/23 00:37:28;;;;;;;;;;;7.50;96.80;;;;;;4963897;28;19938;-78
2022/11/23 00:39:54;;;;;;;;;;;7.50;96.90;;;;;;4964946;28;19930;-78
2022/11/23 00:42:21;;;;;;;;;;;7.50;96.90;;;;;;4963207;28;20308;-78
2022/11/23 00:44:48;;;;;;;;;;;7.50;96.90;;;;;;4957645;28;19930;-78
2022/11/23 00:47:14;;;;;;;;;;;7.40;96.90;;;;;;4960612;28;19930;-78
2022/11/23 00:49:41;;;;;;;;;;;7.40;96.90;;;;;;4962213;28;19931;-78
2022/11/23 00:52:07;;;;;;;;;;;7.40;96.90;;;;;;4962301;28;19941;-78
2022/11/23 00:54:35;;;;;;;;;;;7.40;97.00;;;;;;4964279;28;19930;-79
2022/11/23 00:57:02;;;;;;;;;;;7.40;97.00;;;;;;4963353;28;19930;-77
2022/11/23 00:59:29;;;;;;;;;;;7.40;97.00;;;;;;4962980;28;19930;-78
2022/11/23 01:01:55;;;;;;;;;;;7.40;97.00;;;;;;4957935;28;20064;-77
2022/11/23 01:04:22;;;;;;;;;;;7.40;97.00;;;;;;4961839;28;20399;-78
2022/11/23 01:06:48;;;;;;;;;;;7.40;97.10;;;;;;4958431;28;19972;-78
2022/11/23 01:09:16;;;;;;;;;;;7.40;97.10;;;;;;4958249;28;19934;-78
2022/11/23 01:11:44;;;;;;;;;;;7.40;97.20;;;;;;4960214;28;19965;-78
2022/11/23 01:14:11;;;;;;;;;;;7.40;97.20;;;;;;4965634;28;19937;-77
2022/11/23 01:16:40;;;;;;;;;;;7.40;97.20;;;;;;4959499;28;19937;-78
2022/11/23 01:19:08;;;;;;;;;;;7.30;97.20;;;;;;4966517;28;19934;-77
2022/11/23 01:21:35;;;;;;;;;;;7.30;97.30;;;;;;4964863;28;19930;-78
2022/11/23 01:24:04;;;;;;;;;;;7.30;97.30;;;;;;4966262;28;19937;-77
2022/11/23 01:26:30;;;;;;;;;;;7.30;97.30;;;;;;4962311;28;19930;-78
2022/11/23 01:28:58;;;;;;;;;;;7.30;97.40;;;;;;4963921;28;19941;-78
2022/11/23 01:31:25;;;;;;;;;;;7.30;97.30;;;;;;4961271;28;19930;-78
2022/11/23 01:33:52;;;;;;;;;;;7.30;97.30;;;;;;4961561;28;19930;-78
2022/11/23 01:36:20;;;;;;;;;;;7.30;97.30;;;;;;4958159;28;19938;-77
2022/11/23 01:38:47;;;;;;;;;;;7.30;97.30;;;;;;4956370;28;19941;-78
2022/11/23 01:41:15;;;;;;;;;;;7.30;97.30;;;;;;4957248;28;19937;-78
2022/11/23 01:43:42;;;;;;;;;;;7.30;97.40;;;;;;4965225;28;19930;-78
2022/11/23 01:46:10;;;;;;;;;;;7.30;97.40;;;;;;4962182;28;19926;-78
2022/11/23 01:48:39;;;;;;;;;;;7.20;97.40;;;;;;4960374;28;19937;-78
2022/11/23 01:51:06;;;;;;;;;;;7.20;97.40;;;;;;4963869;28;19957;-79
2022/11/23 01:53:33;;;;;;;;;;;7.20;97.40;;;;;;4960903;28;20628;-78
2022/11/23 01:56:00;;;;;;;;;;;7.20;97.40;;;;;;4961829;28;19938;-78
2022/11/23 01:58:29;;;;;;;;;;;7.10;97.40;;;;;;4959671;28;19930;-77
2022/11/23 02:00:55;;;;;;;;;;;7.20;97.40;;;;;;4962707;28;19953;-78
2022/11/23 02:03:24;;;;;;;;;;;7.10;97.40;;;;;;4957327;28;19941;-78
2022/11/23 02:05:58;;;;;;;;;;;7.20;97.50;;;;;;4955811;28;19930;-78
2022/11/23 02:08:25;;;;;;;;;;;7.10;97.40;;;;;;4954326;28;19940;-79
2022/11/23 02:10:52;;;;;;;;;;;7.10;97.40;;;;;;4960503;28;19989;-79
2022/11/23 02:13:18;;;;;;;;;;;7.10;97.40;;;;;;4957404;28;20515;-78
2022/11/23 02:15:45;;;;;;;;;;;7.10;97.40;;;;;;4958100;28;19930;-78
2022/11/23 02:18:14;;;;;;;;;;;7.10;97.40;;;;;;4961518;28;19937;-78
2022/11/23 02:20:43;;;;;;;;;;;7.10;97.40;;;;;;4961989;28;19930;-78
2022/11/23 02:23:14;;;;;;;;;;;7.10;97.50;;;;;;4961392;28;20182;-79
2022/11/23 02:25:43;;;;;;;;;;;7.10;97.50;;;;;;4959680;28;19931;-78
2022/11/23 02:28:11;;;;;;;;;;;7.10;97.50;;;;;;4957914;28;19937;-78
2022/11/23 02:30:39;;;;;;;;;;;7.10;97.50;;;;;;4956374;28;19930;-78
2022/11/23 02:33:06;;;;;;;;;;;7.10;97.50;;;;;;4959366;28;20372;-79
2022/11/23 02:35:32;;;;;;;;;;;7.10;97.50;;;;;;4956951;28;19934;-78
2022/11/23 02:38:00;;;;;;;;;;;7.10;97.50;;;;;;4954386;28;19930;-78
2022/11/23 02:40:28;;;;;;;;;;;7.10;97.50;;;;;;4957113;28;20049;-79
2022/11/23 02:42:55;;;;;;;;;;;7.10;97.50;;;;;;4960563;28;19931;-79
2022/11/23 02:45:26;;;;;;;;;;;7.10;97.50;;;;;;4955405;28;19930;-78
2022/11/23 02:47:53;;;;;;;;;;;7.10;97.50;;;;;;4958421;28;19930;-78
2022/11/23 02:50:20;;;;;;;;;;;7.10;97.60;;;;;;4958636;28;19953;-78
2022/11/23 02:52:46;;;;;;;;;;;7.10;97.50;;;;;;4954770;28;19934;-80
2022/11/23 02:55:13;;;;;;;;;;;7.00;97.50;;;;;;4958741;28;19930;-78
2022/11/23 02:57:39;;;;;;;;;;;7.10;97.60;;;;;;4954408;28;19930;-77
2022/11/23 03:00:07;;;;;;;;;;;7.10;97.50;;;;;;4957822;28;19930;-78
2022/11/23 03:02:35;;;;;;;;;;;7.10;97.60;;;;;;4960209;28;19934;-78
2022/11/23 03:05:02;;;;;;;;;;;7.10;97.50;;;;;;4957102;28;19930;-79
2022/11/23 03:07:28;;;;;;;;;;;7.10;97.60;;;;;;4959114;28;19931;-78
2022/11/23 03:09:55;;;;;;;;;;;7.10;97.60;;;;;;4961882;28;19930;-78
2022/11/23 03:12:21;;;;;;;;;;;7.10;97.60;;;;;;4959735;28;20282;-78
2022/11/23 03:14:48;;;;;;;;;;;7.10;97.60;;;;;;4963277;28;19960;-78
2022/11/23 03:17:14;;;;;;;;;;;7.00;97.60;;;;;;4957760;28;19949;-79
2022/11/23 03:19:42;;;;;;;;;;;7.00;97.80;;;;;;4955699;28;19941;-78
2022/11/23 03:22:09;;;;;;;;;;;7.10;97.60;;;;;;4961372;28;19930;-78
2022/11/23 03:24:35;;;;;;;;;;;7.00;97.60;;;;;;4956476;28;19930;-78
2022/11/23 03:27:02;;;;;;;;;;;7.00;97.60;;;;;;4956472;28;19937;-78
2022/11/23 03:29:28;;;;;;;;;;;7.10;97.60;;;;;;4963593;28;19984;-77
2022/11/23 03:31:55;;;;;;;;;;;7.10;97.60;;;;;;4958112;28;19930;-78
2022/11/23 03:34:22;;;;;;;;;;;7.10;97.60;;;;;;4964591;28;19934;-77
2022/11/23 03:36:50;;;;;;;;;;;7.00;97.60;;;;;;4959582;28;20426;-79
2022/11/23 03:39:17;;;;;;;;;;;7.10;97.60;;;;;;4959413;28;19930;-78
2022/11/23 03:41:43;;;;;;;;;;;7.00;97.60;;;;;;4952375;28;19937;-78
2022/11/23 03:44:10;;;;;;;;;;;7.00;97.60;;;;;;4957398;28;20487;-78
2022/11/23 03:46:36;;;;;;;;;;;7.00;97.60;;;;;;4955967;28;20374;-78
2022/11/23 03:49:03;;;;;;;;;;;7.00;97.60;;;;;;4958894;28;19930;-78
2022/11/23 03:51:30;;;;;;;;;;;7.00;97.60;;;;;;4954583;28;19941;-78
2022/11/23 03:53:57;;;;;;;;;;;7.00;97.60;;;;;;4960852;28;19934;-79
2022/11/23 03:56:24;;;;;;;;;;;7.00;97.60;;;;;;4955162;28;19934;-78
2022/11/23 03:58:51;;;;;;;;;;;7.00;97.60;;;;;;4957080;28;20529;-79
2022/11/23 04:01:17;;;;;;;;;;;7.00;97.60;;;;;;4955927;28;19941;-78
2022/11/23 04:03:44;;;;;;;;;;;7.00;97.60;;;;;;4953459;28;19942;-78
2022/11/23 04:06:10;;;;;;;;;;;7.00;97.60;;;;;;4954923;28;19937;-78
2022/11/23 04:08:37;;;;;;;;;;;7.00;97.60;;;;;;4958799;28;19931;-78
2022/11/23 04:11:05;;;;;;;;;;;7.00;97.60;;;;;;4962958;28;19926;-78
2022/11/23 04:13:31;;;;;;;;;;;7.00;97.60;;;;;;4958608;28;19930;-78
2022/11/23 04:15:58;;;;;;;;;;;7.00;97.60;;;;;;4961355;28;19930;-78
2022/11/23 04:18:24;;;;;;;;;;;7.00;97.60;;;;;;4965776;28;19937;-78
2022/11/23 04:20:51;;;;;;;;;;;7.00;97.60;;;;;;4960173;28;19938;-78
2022/11/23 04:23:18;;;;;;;;;;;6.90;97.60;;;;;;4964939;28;19930;-79
2022/11/23 04:25:45;;;;;;;;;;;6.90;97.60;;;;;;4959873;28;19931;-78
2022/11/23 04:28:12;;;;;;;;;;;6.90;97.60;;;;;;4965318;28;20871;-79
2022/11/23 04:30:39;;;;;;;;;;;7.00;97.70;;;;;;4962468;28;19934;-78
2022/11/23 04:33:06;;;;;;;;;;;6.90;97.70;;;;;;4963200;28;19930;-78
2022/11/23 04:35:33;;;;;;;;;;;6.90;97.70;;;;;;4962062;28;19930;-78
2022/11/23 04:37:59;;;;;;;;;;;6.90;97.70;;;;;;4962836;28;20013;-78
2022/11/23 04:40:26;;;;;;;;;;;6.90;97.70;;;;;;4961844;28;19931;-78
2022/11/23 04:42:52;;;;;;;;;;;6.90;97.70;;;;;;4967852;28;19929;-78
2022/11/23 04:45:20;;;;;;;;;;;6.90;97.70;;;;;;4960335;28;19930;-78
2022/11/23 04:47:47;;;;;;;;;;;6.90;97.70;;;;;;4961144;28;19934;-78
2022/11/23 04:50:13;;;;;;;;;;;6.90;97.70;;;;;;4959305;28;20130;-78
2022/11/23 04:52:40;;;;;;;;;;;6.90;97.70;;;;;;4957931;28;19931;-79
2022/11/23 04:55:07;;;;;;;;;;;6.90;97.80;;;;;;4958230;28;19934;-79
2022/11/23 04:57:33;;;;;;;;;;;6.90;97.80;;;;;;4961868;28;19930;-78
2022/11/23 05:00:00;;;;;;;;;;;6.80;97.70;;;;;;4956255;28;20604;-78
2022/11/23 05:02:28;;;;;;;;;;;6.80;97.80;;;;;;4952610;28;19934;-78
2022/11/23 05:04:54;;;;;;;;;;;6.80;97.80;;;;;;4952396;28;19937;-78
2022/11/23 05:07:21;;;;;;;;;;;6.80;97.80;;;;;;4959831;28;19934;-78
2022/11/23 05:09:47;;;;;;;;;;;6.80;97.80;;;;;;4958064;28;20438;-78
2022/11/23 05:12:14;;;;;;;;;;;6.80;97.80;;;;;;4954985;28;19966;-78
2022/11/23 05:14:41;;;;;;;;;;;6.80;97.80;;;;;;4956460;28;19934;-77
2022/11/23 05:17:08;;;;;;;;;;;6.80;97.80;;;;;;4960101;28;19926;-78
2022/11/23 05:19:36;;;;;;;;;;;6.80;97.80;;;;;;4949967;28;19934;-78
2022/11/23 05:22:02;;;;;;;;;;;6.80;97.80;;;;;;4960594;28;19954;-78
2022/11/23 05:24:29;;;;;;;;;;;6.80;97.80;;;;;;4946798;28;19937;-77
2022/11/23 05:26:56;;;;;;;;;;;6.80;97.80;;;;;;4963190;28;20013;-77
2022/11/23 05:29:22;;;;;;;;;;;6.70;97.80;;;;;;4958328;28;19930;-77
2022/11/23 05:31:49;;;;;;;;;;;6.80;97.80;;;;;;4960756;28;19930;-78
2022/11/23 05:34:15;;;;;;;;;;;6.70;97.80;;;;;;4958810;28;19930;-78
2022/11/23 05:36:43;;;;;;;;;;;6.70;97.80;;;;;;4953788;28;19941;-78
2022/11/23 05:39:10;;;;;;;;;;;6.70;97.80;;;;;;4953163;28;19930;-78
2022/11/23 05:41:36;;;;;;;;;;;6.70;97.80;;;;;;4963343;28;19941;-79
2022/11/23 05:44:03;;;;;;;;;;;6.70;97.80;;;;;;4962764;28;19930;-78
2022/11/23 05:46:29;;;;;;;;;;;6.70;97.80;;;;;;4958277;28;20695;-78
2022/11/23 05:48:56;;;;;;;;;;;6.70;97.80;;;;;;4957736;28;19930;-78
2022/11/23 05:51:23;;;;;;;;;;;6.60;97.80;;;;;;4962202;28;19941;-78
2022/11/23 05:53:50;;;;;;;;;;;6.70;97.80;;;;;;4957867;28;19931;-78
2022/11/23 05:56:17;;;;;;;;;;;6.60;97.80;;;;;;4953996;28;19942;-77
2022/11/23 05:58:44;;;;;;;;;;;6.60;97.70;;;;;;4952780;28;20813;-76
2022/11/23 06:01:10;;;;;;;;;;;6.40;96.60;;;;;;4952892;28;19930;-78
2022/11/23 06:03:37;;;;;;;;;;;6.50;96.80;;;;;;4954811;28;19934;-78
2022/11/23 06:06:05;;;;;;;;;;;6.50;97.00;;;;;;4957914;28;20516;-77
2022/11/23 06:08:31;;;;;;;;;;;6.50;97.20;;;;;;4961967;28;19934;-77
2022/11/23 06:11:01;;;;;;;;;;;6.50;97.30;;;;;;4956110;28;19938;-78
2022/11/23 06:13:28;;;;;;;;;;;6.50;97.40;;;;;;4956086;28;20055;-78
2022/11/23 06:15:54;;;;;;;;;;;6.50;97.40;;;;;;4961353;28;19935;-77
2022/11/23 06:18:21;;;;;;;;;;;6.50;97.50;;;;;;4960248;28;19934;-78
2022/11/23 06:20:47;;;;;;;;;;;6.50;97.50;;;;;;4960485;28;19931;-78
2022/11/23 06:23:14;;;;;;;;;;;6.50;97.50;;;;;;4964745;28;19941;-78
2022/11/23 06:25:40;;;;;;;;;;;6.50;97.60;;;;;;4957400;28;19930;-78
2022/11/23 06:28:08;;;;;;;;;;;6.50;97.60;;;;;;4960637;28;20404;-78
2022/11/23 06:30:35;;;;;;;;;;;6.50;97.60;;;;;;4962279;28;19929;-78
2022/11/23 06:33:02;;;;;;;;;;;6.50;97.60;;;;;;4963701;28;19937;-77
2022/11/23 06:35:29;;;;;;;;;;;6.50;97.60;;;;;;4961347;28;19930;-78
2022/11/23 06:37:55;;;;;;;;;;;6.40;97.60;;;;;;4958904;28;19930;-77
2022/11/23 06:40:22;;;;;;;;;;;6.40;97.60;;;;;;4961232;28;19930;-78
2022/11/23 06:42:49;;;;;;;;;;;6.40;97.60;;;;;;4960947;28;20017;-78
2022/11/23 06:45:17;;;;;;;;;;;6.40;97.60;;;;;;4950845;28;19941;-78
2022/11/23 06:47:43;;;;;;;;;;;6.40;97.60;;;;;;4958696;28;19938;-77
2022/11/23 06:50:10;;;;;;;;;;;6.40;97.60;;;;;;4962651;28;19930;-78
2022/11/23 06:52:37;;;;;;;;;;;6.40;97.60;;;;;;4961948;28;19937;-78
2022/11/23 06:55:04;;;;;;;;;;;6.30;97.50;;;;;;4960656;28;20471;-77
2022/11/23 06:57:30;;;;;;;;;;;6.30;97.50;;;;;;4959945;28;19949;-78
2022/11/23 06:59:57;;;;;;;;;;;6.30;97.50;;;;;;4961375;28;19941;-77
2022/11/23 07:02:25;;;;;;;;;;;6.30;97.50;;;;;;4959480;28;19941;-78
2022/11/23 07:04:51;;;;;;;;;;;6.30;97.50;;;;;;4954947;28;19941;-77
2022/11/23 07:07:18;;;;;;;;;;;6.30;97.60;;;;;;4955547;28;20363;-77
2022/11/23 07:09:44;;;;;;;;;;;6.30;97.60;;;;;;4957682;28;20315;-78
2022/11/23 07:12:11;;;;;;;;;;;6.30;97.60;;;;;;4954650;28;19930;-77
2022/11/23 07:14:38;;;;;;;;;;;6.20;97.60;;;;;;4954331;28;19940;-78
2022/11/23 07:17:04;;;;;;;;;;;6.20;97.60;;;;;;4961508;28;19934;-77
2022/11/23 07:19:32;;;;;;;;;;;6.20;97.60;;;;;;4958957;28;19930;-78
2022/11/23 07:21:59;;;;;;;;;;;6.20;97.60;;;;;;4961995;28;19926;-77
2022/11/23 07:24:25;;;;;;;;;;;6.20;97.60;;;;;;4961377;28;19940;-77
2022/11/23 07:26:52;;;;;;;;;;;6.20;97.60;;;;;;4966050;28;19930;-77
2022/11/23 07:29:18;;;;;;;;;;;6.10;97.50;;;;;;4962357;28;19930;-78
2022/11/23 07:31:45;;;;;;;;;;;6.10;97.50;;;;;;4964609;28;19945;-77
2022/11/23 07:34:11;;;;;;;;;;;6.10;97.50;;;;;;4961921;28;19937;-77
2022/11/23 07:36:39;;;;;;;;;;;6.10;97.50;;;;;;4962908;28;19937;-78
2022/11/23 07:39:07;;;;;;;;;;;6.10;97.50;;;;;;4964574;28;19930;-78
2022/11/23 07:41:33;;;;;;;;;;;6.00;97.50;;;;;;4963014;28;19938;-78
2022/11/23 07:44:00;;;;;;;;;;;6.00;97.50;;;;;;4962906;28;19930;-77
2022/11/23 07:46:26;;;;;;;;;;;6.00;97.60;;;;;;4962007;28;19930;-78
2022/11/23 07:48:58;;;;;;;;;;;6.00;97.60;;;;;;4967287;28;19929;-78
2022/11/23 07:51:24;;;;;;;;;;;6.00;97.60;;;;;;4970173;28;20296;-77
2022/11/23 07:53:52;;;;;;;;;;;6.00;97.60;;;;;;4964703;28;19930;-77
2022/11/23 07:56:19;;;;;;;;;;;5.90;97.60;;;;;;4959458;28;20408;-78
2022/11/23 07:58:45;;;;;;;;;;;5.90;97.60;;;;;;4959626;28;19938;-77
2022/11/23 08:01:14;;;;;;;;;;;6.00;97.60;;;;;;4963736;28;19937;-77
2022/11/23 08:03:40;;;;;;;;;;;5.90;97.60;;;;;;4956504;28;20019;-78
2022/11/23 08:06:09;;;;;;;;;;;5.90;97.60;;;;;;4959512;28;19942;-78
2022/11/23 08:08:35;;;;;;;;;;;5.90;97.60;;;;;;4952157;28;19930;-77
2022/11/23 08:11:04;;;;;;;;;;;5.90;97.60;;;;;;4960583;28;19931;-78
2022/11/23 08:13:33;;;;;;;;;;;5.90;97.60;;;;;;4957612;28;19930;-78
2022/11/23 08:16:00;;;;;;;;;;;5.90;97.60;;;;;;4957822;28;19938;-78
2022/11/23 08:18:27;;;;;;;;;;;5.90;97.60;;;;;;4956581;28;19972;-78
2022/11/23 08:20:54;;;;;;;;;;;5.90;97.60;;;;;;4953513;28;19930;-77
2022/11/23 08:23:20;;;;;;;;;;;5.80;97.60;;;;;;4956820;28;19930;-76
2022/11/23 08:25:47;;;;;;;;;;;5.80;97.60;;;;;;4952402;28;21133;-77
2022/11/23 08:28:15;;;;;;;;;;;5.80;97.60;;;;;;4952229;28;19938;-77
2022/11/23 08:30:41;;;;;;;;;;;5.80;97.60;;;;;;4959352;28;19949;-78
2022/11/23 08:33:08;;;;;;;;;;;5.80;97.70;;;;;;4956655;28;19938;-77
2022/11/23 08:35:35;;;;;;;;;;;5.80;97.70;;;;;;4957559;28;19969;-77
2022/11/23 08:38:02;;;;;;;;;;;5.80;97.70;;;;;;4960848;28;19942;-78
2022/11/23 08:40:29;;;;;;;;;;;5.80;97.70;;;;;;4949383;28;19930;-78
2022/11/23 08:42:55;;;;;;;;;;;5.80;97.70;;;;;;4954840;28;19941;-77
2022/11/23 08:45:23;;;;;;;;;;;5.80;97.70;;;;;;4951299;28;19930;-77
2022/11/23 08:47:50;;;;;;;;;;;5.80;97.70;;;;;;4957395;28;19937;-77
2022/11/23 08:50:17;;;;;;;;;;;5.80;97.70;;;;;;4955172;28;19973;-78
2022/11/23 08:52:43;;;;;;;;;;;5.70;97.70;;;;;;4952053;28;20119;-77
2022/11/23 08:55:10;;;;;;;;;;;5.70;97.70;;;;;;4951164;28;19931;-78
2022/11/23 08:57:37;;;;;;;;;;;5.70;97.70;;;;;;4957801;28;19937;-78
2022/11/23 09:00:03;;;;;;;;;;;5.80;97.80;;;;;;4959637;28;19937;-77
2022/11/23 09:02:31;;;;;;;;;;;5.80;97.80;;;;;;4962437;28;19930;-77
2022/11/23 09:04:59;;;;;;;;;;;5.80;97.80;;;;;;4957741;28;19930;-77
2022/11/23 09:07:26;;;;;;;;;;;5.70;97.80;;;;;;4956498;28;19941;-78
2022/11/23 09:09:52;;;;;;;;;;;5.80;97.80;;;;;;4957097;28;19934;-77
2022/11/23 09:12:19;;;;;;;;;;;5.70;97.80;;;;;;4957096;28;19934;-78
2022/11/23 09:14:45;;;;;;;;;;;5.70;97.80;;;;;;4962403;28;20450;-78
2022/11/23 09:17:12;;;;;;;;;;;5.70;97.70;;;;;;4960766;28;20828;-78
2022/11/23 09:19:40;;;;;;;;;;;5.80;97.80;;;;;;4965053;28;20177;-77
2022/11/23 09:22:06;;;;;;;;;;;5.70;97.70;;;;;;4960312;28;19981;-77
2022/11/23 09:24:33;;;;;;;;;;;5.80;97.80;;;;;;4961111;28;19950;-77
2022/11/23 09:27:00;;;;;;;;;;;5.70;97.70;;;;;;4958894;28;19938;-77
2022/11/23 09:29:27;;;;;;;;;;;5.80;97.80;;;;;;4957334;28;20393;-77
2022/11/23 09:31:53;;;;;;;;;;;5.80;97.80;;;;;;4962619;28;19930;-77
2022/11/23 09:34:20;;;;;;;;;;;5.70;97.80;;;;;;4961902;28;20174;-78
2022/11/23 09:36:48;;;;;;;;;;;5.70;97.70;;;;;;4964623;28;19930;-77
2022/11/23 09:39:15;;;;;;;;;;;5.80;97.80;;;;;;4959273;28;19937;-77
2022/11/23 09:42:02;;;;;;;;;;;5.80;97.70;;;;;;4957665;28;19969;-78
2022/11/23 09:44:33;;;;;;;;;;;5.80;97.70;;;;;;4948629;28;19957;-77
2022/11/23 09:47:06;;;;;;;;;;;5.80;97.80;;;;;;4952101;28;19981;-78
2022/11/23 09:49:35;;;;;;;;;;;5.80;97.70;;;;;;4955652;28;19930;-78
2022/11/23 09:52:03;;;;;;;;;;;5.80;97.80;;;;;;4958265;28;19937;-77
2022/11/23 09:54:31;;;;;;;;;;;5.80;97.80;;;;;;4952361;28;19937;-78
2022/11/23 09:56:58;;;;;;;;;;;5.80;97.80;;;;;;4951504;28;19931;-77
2022/11/23 09:59:31;;;;;;;;;;;5.90;97.80;;;;;;4952773;28;20707;-77
2022/11/23 10:01:58;;;;;;;;;;;5.90;97.70;;;;;;4956907;28;19934;-77
2022/11/23 10:04:24;;;;;;;;;;;5.90;97.70;;;;;;4958325;28;19929;-77
2022/11/23 10:06:54;;;;;;;;;;;5.90;97.70;;;;;;4957942;28;19941;-77
2022/11/23 10:09:28;;;;;;;;;;;5.90;97.70;;;;;;4959032;28;19937;-77
2022/11/23 10:12:03;;;;;;;;;;;5.90;97.70;;;;;;4958579;28;19930;-77
2022/11/23 10:14:40;;;;;;;;;;;6.00;97.70;;;;;;4956770;28;20352;-78
2022/11/23 10:17:09;;;;;;;;;;;6.00;97.70;;;;;;4957358;28;19934;-77
2022/11/23 10:19:46;;;;;;;;;;;6.00;97.60;;;;;;4956922;28;19930;-78
2022/11/23 10:22:15;;;;;;;;;;;6.10;97.60;;;;;;4958976;28;19991;-78
2022/11/23 10:24:46;;;;;;;;;;;6.20;97.50;;;;;;4962887;28;19930;-77
2022/11/23 10:27:14;;;;;;;;;;;6.20;97.60;;;;;;4954335;28;20570;-77
2022/11/23 10:29:41;;;;;;;;;;;6.30;97.20;;;;;;4957475;28;19937;-78
2022/11/23 10:32:15;;;;;;;;;;;6.40;97.00;;;;;;4953101;28;19941;-77
2022/11/23 10:34:46;;;;;;;;;;;6.50;96.80;;;;;;4957184;28;19934;-77
2022/11/23 10:37:13;;;;;;;;;;;6.70;96.70;;;;;;4954458;28;21782;-78
2022/11/23 10:39:40;;;;;;;;;;;6.70;96.40;;;;;;4954351;28;19930;-77
2022/11/23 10:42:18;;;;;;;;;;;6.80;96.20;;;;;;4954420;28;21100;-78
2022/11/23 10:44:46;;;;;;;;;;;6.90;96.10;;;;;;4949704;28;19940;-77
2022/11/23 10:47:32;;;;;;;;;;;6.90;95.90;;;;;;4952575;28;20052;-77
2022/11/23 10:49:59;;;;;;;;;;;7.00;95.80;;;;;;4950241;28;20119;-77
2022/11/23 10:52:27;;;;;;;;;;;7.00;95.60;;;;;;4954449;28;19930;-77
2022/11/23 10:54:55;;;;;;;;;;;7.10;95.60;;;;;;4952027;28;20526;-78
2022/11/23 10:57:30;;;;;;;;;;;7.10;95.50;;;;;;4958900;28;19937;-78
2022/11/23 10:59:59;;;;;;;;;;;7.20;95.40;;;;;;4961078;28;20582;-78
2022/11/23 11:02:26;;;;;;;;;;;7.20;95.30;;;;;;4957714;28;19930;-78
2022/11/23 11:05:10;;;;;;;;;;;7.20;95.30;;;;;;4958293;28;19937;-78
2022/11/23 11:07:37;;;;;;;;;;;7.20;95.20;;;;;;4957732;28;20490;-78
2022/11/23 11:10:05;;;;;;;;;;;7.20;95.20;;;;;;4951252;28;19937;-78
2022/11/23 11:12:34;;;;;;;;;;;7.20;95.20;;;;;;4955196;28;19942;-78
2022/11/23 11:15:02;;;;;;;;;;;7.20;95.20;;;;;;4955550;28;19930;-78
2022/11/23 11:17:30;;;;;;;;;;;7.20;95.20;;;;;;4956884;28;19992;-77
2022/11/23 11:19:57;;;;;;;;;;;7.20;95.20;;;;;;4959579;28;19934;-78
2022/11/23 11:22:28;;;;;;;;;;;7.20;95.20;;;;;;4946898;28;19942;-77
2022/11/23 11:24:55;;;;;;;;;;;7.20;95.20;;;;;;4956569;28;20673;-78
2022/11/23 11:27:22;;;;;;;;;;;7.20;95.10;;;;;;4950075;28;19941;-77
2022/11/23 11:29:51;;;;;;;;;;;7.30;94.90;;;;;;4956151;28;20661;-78
2022/11/23 11:32:22;;;;;;;;;;;7.30;94.80;;;;;;4951255;28;19945;-78
2022/11/23 11:34:50;;;;;;;;;;;7.30;94.80;;;;;;4957583;28;20028;-78
2022/11/23 11:37:22;;;;;;;;;;;7.30;94.70;;;;;;4954465;28;19931;-78
2022/11/23 11:39:51;;;;;;;;;;;7.40;94.60;;;;;;4960069;28;19930;-77
2022/11/23 11:42:19;;;;;;;;;;;7.40;94.60;;;;;;4951904;28;20389;-78
2022/11/23 11:44:46;;;;;;;;;;;7.40;94.60;;;;;;4956467;28;19930;-78
2022/11/23 11:47:21;;;;;;;;;;;7.40;94.70;;;;;;4957797;28;19930;-78
2022/11/23 11:49:49;;;;;;;;;;;7.50;94.60;;;;;;4954929;28;19954;-77
2022/11/23 11:52:20;;;;;;;;;;;7.50;94.60;;;;;;4959478;28;19930;-77
2022/11/23 11:54:50;;;;;;;;;;;7.60;94.60;;;;;;4955032;28;19989;-78
2022/11/23 11:57:20;;;;;;;;;;;7.60;94.50;;;;;;4958617;28;19984;-78
2022/11/23 11:59:47;;;;;;;;;;;7.70;94.50;;;;;;4954585;28;19934;-78
2022/11/23 12:02:19;;;;;;;;;;;7.70;94.30;;;;;;4952295;28;20406;-78
2022/11/23 12:04:49;;;;;;;;;;;7.80;94.20;;;;;;4954177;28;19930;-78
2022/11/23 12:07:18;;;;;;;;;;;7.90;94.20;;;;;;4949576;28;20263;-78
2022/11/23 12:09:46;;;;;;;;;;;7.90;94.10;;;;;;4959483;28;19934;-79
2022/11/23 12:12:15;;;;;;;;;;;8.00;94.00;;;;;;4959075;28;19930;-78
2022/11/23 12:14:41;;;;;;;;;;;8.10;94.00;;;;;;4955529;28;19965;-77
2022/11/23 12:17:18;;;;;;;;;;;8.10;93.90;;;;;;4951383;28;20742;-78
2022/11/23 12:19:48;;;;;;;;;;;8.20;93.90;;;;;;4954184;28;20479;-78
2022/11/23 12:22:23;;;;;;;;;;;8.20;93.60;;;;;;4951782;28;19930;-78
2022/11/23 12:24:56;;;;;;;;;;;8.30;93.50;;;;;;4956884;28;19936;-78
2022/11/23 12:27:26;;;;;;;;;;;8.40;93.20;;;;;;4956273;28;19934;-78
2022/11/23 12:30:00;;;;;;;;;;;8.50;92.70;;;;;;4957800;28;19930;-78
2022/11/23 12:32:29;;;;;;;;;;;8.50;92.70;;;;;;4959040;28;19934;-78
2022/11/23 12:35:04;;;;;;;;;;;8.60;92.50;;;;;;4955707;28;19934;-78
2022/11/23 12:37:39;;;;;;;;;;;8.60;92.50;;;;;;4957785;28;19930;-77
2022/11/23 12:40:13;;;;;;;;;;;8.70;92.60;;;;;;4954540;28;20443;-78
2022/11/23 12:42:41;;;;;;;;;;;8.70;92.60;;;;;;4959915;28;19933;-78
2022/11/23 12:45:22;;;;;;;;;;;8.70;92.20;;;;;;4956488;28;19974;-77
2022/11/23 12:47:55;;;;;;;;;;;8.70;92.50;;;;;;4954492;28;19941;-78
2022/11/23 12:50:28;;;;;;;;;;;8.70;92.60;;;;;;4957135;28;19930;-78
2022/11/23 12:52:59;;;;;;;;;;;8.80;92.70;;;;;;4957555;28;19938;-78
2022/11/23 12:55:30;;;;;;;;;;;8.80;92.70;;;;;;4959947;28;19935;-78
2022/11/23 12:58:01;;;;;;;;;;;8.80;92.70;;;;;;4964171;28;19942;-78
2022/11/23 13:00:31;;;;;;;;;;;8.90;92.70;;;;;;4957550;28;19934;-79
2022/11/23 13:03:12;;;;;;;;;;;8.90;92.50;;;;;;4960741;28;19990;-78
2022/11/23 13:30:09;;;;;;;;;;;9.10;91.80;;;;;;5065847;27;1905265;-75
2022/11/23 13:32:46;;;;;;;;;;;9.10;91.70;;;;;;5132938;27;19931;-75
2022/11/23 13:35:31;;;;;;;;;;;9.20;91.80;;;;;;5136786;27;20480;-76
2022/11/23 13:38:13;;;;;;;;;;;9.30;91.70;;;;;;5139959;27;20322;-76
2022/11/23 13:40:40;;;;;;;;;;;9.30;91.70;;;;;;5116300;27;19942;-75
2022/11/23 13:43:13;;;;;;;;;;;9.40;91.50;;;;;;5133427;27;19934;-77
2022/11/23 13:45:41;;;;;;;;;;;9.40;91.40;;;;;;5137805;27;19939;-76
2022/11/23 13:48:18;;;;;;;;;;;9.50;91.50;;;;;;5136365;27;19931;-77
2022/11/23 13:51:01;;;;;;;;;;;9.50;91.50;;;;;;5126258;27;20476;-77
2022/11/23 13:53:29;;;;;;;;;;;9.60;91.30;;;;;;5129669;27;19927;-76
2022/11/23 13:55:57;;;;;;;;;;;9.60;91.20;;;;;;5131759;27;19932;-77
2022/11/23 13:58:37;;;;;;;;;;;9.70;91.10;;;;;;5130408;27;19980;-77
2022/11/23 14:01:05;;;;;;;;;;;9.70;91.00;;;;;;5131654;27;20000;-77
2022/11/23 14:03:55;;;;;;;;;;;9.70;91.10;;;;;;5132982;27;19962;-75
2022/11/23 14:06:28;;;;;;;;;;;9.70;91.20;;;;;;5116582;27;19938;-76
2022/11/23 14:09:00;;;;;;;;;;;9.70;91.20;;;;;;5134055;27;19938;-77
2022/11/23 14:11:27;;;;;;;;;;;9.80;91.60;;;;;;5128488;27;19931;-75
2022/11/23 14:13:56;;;;;;;;;;;9.70;91.30;;;;;;5132315;27;19932;-76
2022/11/23 14:16:33;;;;;;;;;;;9.70;91.40;;;;;;5137122;27;19927;-74
2022/11/23 14:19:05;;;;;;;;;;;9.60;91.50;;;;;;5130079;27;19938;-77
2022/11/23 14:21:35;;;;;;;;;;;9.60;91.60;;;;;;5138370;27;19931;-77
2022/11/23 14:24:16;;;;;;;;;;;9.50;91.70;;;;;;5139232;27;19927;-77
2022/11/23 14:26:48;;;;;;;;;;;9.40;91.80;;;;;;5135407;27;19927;-76
2022/11/23 14:29:27;;;;;;;;;;;9.50;92.00;;;;;;5121082;27;19934;-76
2022/11/23 14:32:02;;;;;;;;;;;9.40;92.10;;;;;;5099836;28;20452;-76
2022/11/23 14:34:33;;;;;;;;;;;9.30;92.10;;;;;;5101080;28;20541;-77
2022/11/23 14:37:04;;;;;;;;;;;9.30;92.30;;;;;;5094312;28;19932;-75
2022/11/23 14:39:46;;;;;;;;;;;9.20;92.50;;;;;;5088713;28;20375;-77
2022/11/23 14:42:14;;;;;;;;;;;9.20;92.60;;;;;;5082600;28;20355;-76
2022/11/23 14:44:41;;;;;;;;;;;9.10;92.70;;;;;;5077422;28;20592;-76
2022/11/23 14:47:10;;;;;;;;;;;9.10;92.80;;;;;;5080167;28;19935;-76
2022/11/23 14:49:36;;;;;;;;;;;9.10;92.80;;;;;;5086386;28;19928;-76
2022/11/23 14:52:04;;;;;;;;;;;9.00;92.90;;;;;;5080713;28;19938;-76
2022/11/23 14:54:31;;;;;;;;;;;9.00;93.00;;;;;;5071798;28;20044;-77
2022/11/23 14:56:59;;;;;;;;;;;9.00;93.10;;;;;;5073016;28;19935;-77
2022/11/23 14:59:27;;;;;;;;;;;9.00;93.30;;;;;;5074713;28;20010;-76
2022/11/23 15:01:55;;;;;;;;;;;9.00;93.40;;;;;;5078006;28;19936;-77